• Join FlightAware (Why Join?)
  • Login
  • US Flag 
10:43AM EDT


 

Airport Tracker/Info


-or-


 

Live Flight TrackerFlight Track Log ✈ AIP5009 ✈ 16-Oct-2013 ✈ KMSO - KBIL

Flight Track Log - Related Links

Times and Time Zones

All times are in EDT time to prevent confusion due to time zone crossing. See the AIP5009 flight status page for this flight to view local times or setup timezone preferences in your user account.

Time Position Orientation Groundspeed Altitude Reporting Facility
EDT Latitude Longitude Course Direction KTS MPH feet Rate Location/Type
06:12AM 46.9278 -114.1125 104° East 101 116 4,100  Level Salt Lake Center
06:13AM 46.9047 -114.1400 219° Southwest 151 174 7,200 2,820 Climbing Salt Lake Center
06:14AM 46.8844 -114.0756 115° Southeast 181 208 9,800 2,400 Climbing Salt Lake Center
06:15AM 46.8678 -114.0058 109° East 185 213 12,100 2,100 Climbing Salt Lake Center
06:16AM 46.8199 -113.5386 106° East  Level Estimated
06:16AM 46.8519 -113.9308 107° East 193 222 14,100  Level Salt Lake Center
06:17AM 46.8036 -113.4467 104° East  Level Estimated
06:17AM 46.8378 -113.8428 103° East 206 237 16,200  Level Salt Lake Center
06:18AM 46.8250 -113.7611 103° East 208 239 17,900 1,680 Climbing Salt Lake Center
06:19AM 46.8092 -113.6794 106° East 210 242 19,600 1,500 Climbing Salt Lake Center
06:20AM 46.7972 -113.6000 102° East 220 253 21,000 1,440 Climbing Salt Lake Center
06:21AM 46.7803 -113.5092 105° East 231 266 22,600 1,020 Climbing Salt Lake Center
06:22AM 46.7656 -113.4136 103° East 246 283 23,100 240 Climbing Salt Lake Center
06:23AM 46.7467 -113.3031 104° East 278 320 23,100 -120 Level Salt Lake Center
06:24AM 46.7300 -113.1850 102° East 295 339 22,900 -120 Descending Salt Lake Center
06:25AM 46.7136 -113.0689 102° East 295 339 22,900  Level Salt Lake Center
06:26AM 46.6956 -112.9531 103° East 294 338 22,900  Level Salt Lake Center
06:27AM 46.6828 -112.8386 99° East 289 333 22,900  Level Salt Lake Center
06:28AM 46.6656 -112.7219 102° East 292 336 22,900  Level Salt Lake Center
06:29AM 46.6531 -112.6053 99° East 293 337 22,900  Level Salt Lake Center
06:30AM 46.6292 -112.4931 107° East 291 335 22,900  Level Salt Lake Center
06:31AM 46.6056 -112.3803 107° East 292 336 23,000  Climbing Salt Lake Center
06:32AM 46.5844 -112.2681 105° East 291 335 22,900  Descending Salt Lake Center
06:33AM 46.5575 -112.1586 110° East 289 333 23,000  Climbing Salt Lake Center
06:34AM 46.5342 -112.0472 107° East 291 335 23,000  Level Salt Lake Center
06:35AM 46.4992 -111.9453 116° Southeast 283 326 23,000  Level Salt Lake Center
06:36AM 46.4781 -111.8331 105° East 286 329 23,000  Level Salt Lake Center
06:37AM 46.4656 -111.7208 99° East 285 328 23,000  Level Salt Lake Center
06:38AM 46.4439 -111.6097 106° East 287 330 23,000  Level Salt Lake Center
06:39AM 46.4111 -111.4825 110° East 285 328 23,000  Level Salt Lake Center
06:40AM 46.3894 -111.3694 105° East 287 330 23,000  Level Salt Lake Center
06:41AM 46.3744 -111.2639 102° East 286 329 23,000  Level Salt Lake Center
06:42AM 46.3508 -111.1517 107° East 290 334 23,000  Level Salt Lake Center
06:43AM 46.3247 -111.0422 109° East 285 328 23,000  Level Salt Lake Center
06:44AM 46.3078 -110.9317 102° East 285 328 23,000  Level Salt Lake Center
06:45AM 46.3000 -110.8158 96° East 289 333 23,000  Level Salt Lake Center
06:46AM 46.2606 -110.7211 121° Southeast 280 322 23,000 -60 Level Salt Lake Center
06:47AM 46.2308 -110.6156 112° Southeast 286 329 22,900 -60 Descending Salt Lake Center
06:48AM 46.2172 -110.5083 100° East 282 325 22,900  Level Salt Lake Center
06:49AM 46.1939 -110.3972 107° East 282 325 22,900  Level Salt Lake Center
06:50AM 46.1642 -110.3031 114° Southeast 287 330 22,900 -240 Level Salt Lake Center
06:51AM 46.1422 -110.1797 104° East 284 327 22,500 -600 Descending Salt Lake Center
06:52AM 46.1256 -110.0686 102° East 291 335 21,800 -720 Descending Salt Lake Center
06:53AM 46.1081 -109.9586 103° East 294 338 21,100 -720 Descending Salt Lake Center
06:54AM 46.0875 -109.8489 105° East 295 339 20,400 -780 Descending Salt Lake Center
06:55AM 46.0706 -109.7233 101° East 293 337 19,600 -720 Descending Salt Lake Center
06:56AM 46.0481 -109.6128 106° East 291 335 19,000 -780 Descending Salt Lake Center
06:57AM 46.0253 -109.4925 105° East 292 336 18,100 -840 Descending Salt Lake Center
06:58AM 46.0064 -109.3789 103° East 295 339 17,400 -780 Descending Salt Lake Center
06:59AM 45.9861 -109.2669 105° East 292 336 16,600 -1,140 Descending Salt Lake Center
07:00AM 45.9697 -109.1533 102° East 295 339 15,200 -1,380 Descending Salt Lake Center
07:01AM 45.9511 -109.0386 103° East 298 343 13,900 -1,440 Descending Salt Lake Center
07:02AM 45.9289 -108.9261 106° East 296 341 12,400 -1,860 Descending Salt Lake Center
07:03AM 45.9056 -108.8039 105° East 295 339 10,200 -2,100 Descending Salt Lake Center
07:04AM 45.8828 -108.6950 107° East 290 334 8,200 -2,040 Descending Salt Lake Center
07:05AM 45.8572 -108.5917 110° East 281 323 6,200 -1,560 Descending Salt Lake Center
07:06AM 45.8356 -108.5061 110° East 231 266 5,100 -1,260 Descending Salt Lake Center
07:07AM 45.8103 -108.5261 209° Southwest 138 159 3,700 -1,440 Descending Salt Lake Center
07:09AM 45.8000 -108.5333 110° East  Level FlightAware Approximate
07:16AM 45.8077 -108.5429 110° East  Level Estimated